Time;durP1;ratioP1;P1;durP2;ratioP2;P2;SDS_P1;SDS_P2;PMS_P1;PMS_P2;Temp;Humidity;BMP_temperature;BMP_pressure;BME280_temperature;BME280_humidity;BME280_pressure;Samples;Min_cycle;Max_cycle;Signal;HPM_P1;HPM_P2
2023/04/14 00:00:21;;;;;;;7.07;5.97;;;3.60;99.90;;;;;;6258386;28;20111;-80
2023/04/14 00:03:22;;;;;;;10.02;5.35;;;3.70;99.90;;;;;;6260490;28;20053;-80
2023/04/14 00:06:26;;;;;;;10.95;5.95;;;3.60;99.90;;;;;;6262943;28;20057;-80
2023/04/14 00:09:29;;;;;;;9.80;3.80;;;3.60;99.90;;;;;;6263655;28;20809;-79
2023/04/14 00:12:30;;;;;;;14.63;5.20;;;3.60;99.90;;;;;;6268355;28;20043;-80
2023/04/14 00:15:32;;;;;;;15.68;4.60;;;3.70;99.90;;;;;;6269165;28;20055;-80
2023/04/14 00:18:34;;;;;;;15.35;5.47;;;3.80;99.90;;;;;;6262862;28;20061;-80
2023/04/14 00:21:36;;;;;;;7.68;4.03;;;3.90;99.90;;;;;;6255704;28;20531;-81
2023/04/14 00:24:42;;;;;;;13.70;3.97;;;3.90;99.90;;;;;;6262697;28;20494;-80
2023/04/14 00:27:44;;;;;;;12.68;4.30;;;4.00;99.90;;;;;;6265054;28;20080;-79
2023/04/14 00:30:46;;;;;;;20.08;4.45;;;4.00;99.90;;;;;;6261050;28;20038;-81
2023/04/14 00:33:47;;;;;;;13.88;4.55;;;4.10;99.90;;;;;;6259519;28;20072;-81
2023/04/14 00:36:49;;;;;;;14.32;4.40;;;4.10;99.90;;;;;;6260443;28;20122;-81
2023/04/14 00:39:52;;;;;;;10.82;4.57;;;4.10;99.90;;;;;;6259864;28;20046;-80
2023/04/14 00:42:54;;;;;;;6.95;3.67;;;4.00;99.90;;;;;;6260198;28;23215;-80
2023/04/14 00:45:56;;;;;;;7.30;3.78;;;4.00;99.90;;;;;;6263344;28;20563;-79
2023/04/14 00:48:58;;;;;;;13.30;4.40;;;3.80;99.90;;;;;;6263311;28;20060;-80
2023/04/14 00:52:00;;;;;;;8.07;3.78;;;3.80;99.90;;;;;;6264231;28;20072;-80
2023/04/14 00:55:04;;;;;;;6.13;3.38;;;3.70;99.90;;;;;;6262689;28;20048;-80
2023/04/14 00:58:06;;;;;;;11.32;3.50;;;3.60;99.90;;;;;;6260961;28;20046;-80
2023/04/14 01:01:08;;;;;;;10.98;5.18;;;3.50;99.90;;;;;;6263088;28;20136;-79
2023/04/14 01:04:11;;;;;;;8.82;3.28;;;3.50;99.90;;;;;;6262343;28;20045;-80
2023/04/14 01:07:13;;;;;;;8.43;3.00;;;3.40;99.90;;;;;;6257233;28;20465;-80
2023/04/14 01:10:16;;;;;;;6.38;4.90;;;3.40;99.90;;;;;;6259355;28;20041;-80
2023/04/14 01:13:32;;;;;;;15.50;6.75;;;3.30;99.90;;;;;;6262040;28;20052;-78
2023/04/14 01:16:38;;;;;;;16.27;5.97;;;3.30;99.90;;;;;;6264339;28;20124;-79
2023/04/14 01:19:56;;;;;;;6.78;4.18;;;3.20;99.90;;;;;;6266793;28;20029;-79
2023/04/14 01:23:04;;;;;;;8.68;6.40;;;3.20;99.90;;;;;;6258909;28;20041;-79
2023/04/14 01:26:20;;;;;;;10.10;3.70;;;3.20;99.90;;;;;;6258498;28;20053;-80
2023/04/14 01:29:36;;;;;;;7.47;3.53;;;3.20;99.90;;;;;;6256972;28;20146;-78
2023/04/14 01:32:44;;;;;;;6.15;3.95;;;3.30;99.90;;;;;;6257435;28;20045;-78
2023/04/14 01:35:51;;;;;;;5.72;3.58;;;3.30;99.90;;;;;;6259932;28;20074;-79
2023/04/14 01:38:54;;;;;;;7.13;3.50;;;3.30;99.90;;;;;;6258544;28;20041;-79
2023/04/14 01:41:58;;;;;;;9.93;3.28;;;3.30;99.90;;;;;;6261339;28;20072;-79
2023/04/14 01:45:11;;;;;;;7.30;3.85;;;3.40;99.90;;;;;;6261935;28;20049;-79
2023/04/14 01:48:15;;;;;;;14.73;4.35;;;3.40;99.90;;;;;;6256912;28;20112;-79
2023/04/14 01:51:19;;;;;;;11.30;3.50;;;3.40;99.90;;;;;;6259577;28;20063;-80
2023/04/14 01:54:24;;;;;;;10.65;4.07;;;3.50;99.90;;;;;;6258213;28;20410;-79
2023/04/14 01:57:27;;;;;;;9.25;3.78;;;3.50;99.90;;;;;;6264066;28;20053;-81
2023/04/14 02:00:29;;;;;;;8.93;3.60;;;3.50;99.90;;;;;;6260108;28;20041;-80
2023/04/14 02:03:32;;;;;;;5.47;3.78;;;3.50;99.90;;;;;;6258469;28;20128;-80
2023/04/14 02:06:35;;;;;;;8.35;3.53;;;3.40;99.90;;;;;;6260345;28;20064;-80
2023/04/14 02:09:39;;;;;;;12.23;4.10;;;3.30;99.90;;;;;;6263118;28;20041;-78
2023/04/14 02:12:43;;;;;;;13.48;3.65;;;3.40;99.90;;;;;;6258915;28;20049;-79
2023/04/14 02:15:46;;;;;;;7.05;2.55;;;3.30;99.90;;;;;;6258790;28;20052;-78
2023/04/14 02:18:51;;;;;;;5.57;2.97;;;3.20;99.90;;;;;;6258988;28;20049;-78
2023/04/14 02:21:55;;;;;;;13.40;3.55;;;3.20;99.90;;;;;;6266017;28;20465;-79
2023/04/14 02:24:59;;;;;;;5.88;3.50;;;3.20;99.90;;;;;;6268084;28;20057;-78
2023/04/14 02:28:05;;;;;;;11.32;2.97;;;3.20;99.90;;;;;;6262574;28;20056;-79
2023/04/14 02:31:15;;;;;;;10.35;2.90;;;3.10;99.90;;;;;;6244792;28;20076;-78
2023/04/14 02:34:25;;;;;;;12.88;3.60;;;3.10;99.90;;;;;;6254389;28;20057;-80
2023/04/14 02:37:33;;;;;;;14.07;4.30;;;3.00;99.90;;;;;;6266053;28;20520;-79
2023/04/14 02:40:40;;;;;;;8.60;4.80;;;2.90;99.90;;;;;;6258728;28;20048;-79
2023/04/14 02:43:47;;;;;;;10.07;3.33;;;2.90;99.90;;;;;;6262298;28;20160;-79
2023/04/14 02:47:02;;;;;;;13.93;4.78;;;2.80;99.90;;;;;;6260205;28;20048;-81
2023/04/14 02:50:10;;;;;;;11.35;5.15;;;2.70;99.90;;;;;;6264712;28;20115;-79
2023/04/14 02:53:12;;;;;;;11.80;4.13;;;2.70;99.90;;;;;;6263170;28;20045;-79
2023/04/14 02:56:15;;;;;;;7.03;4.20;;;2.70;99.90;;;;;;6268126;28;20712;-79
2023/04/14 02:59:17;;;;;;;12.65;3.80;;;2.70;99.90;;;;;;6262018;28;20144;-79
2023/04/14 03:02:22;;;;;;;10.80;3.97;;;2.60;99.90;;;;;;6262995;28;20052;-79
2023/04/14 03:05:26;;;;;;;6.00;3.47;;;2.60;99.90;;;;;;6271190;28;20059;-79
2023/04/14 03:08:28;;;;;;;16.02;6.47;;;2.60;99.90;;;;;;6266445;28;20052;-79
2023/04/14 03:11:32;;;;;;;11.63;3.17;;;2.60;99.90;;;;;;6264946;28;20052;-78
2023/04/14 03:14:35;;;;;;;14.20;4.25;;;2.60;99.90;;;;;;6260592;28;20060;-79
2023/04/14 03:17:37;;;;;;;17.10;5.35;;;2.70;99.90;;;;;;6264643;28;20671;-80
2023/04/14 03:20:44;;;;;;;6.10;3.50;;;2.70;99.90;;;;;;6260428;28;20047;-78
2023/04/14 03:23:47;;;;;;;7.97;4.22;;;2.80;99.90;;;;;;6269961;28;20124;-80
2023/04/14 03:26:51;;;;;;;7.95;4.22;;;2.90;99.90;;;;;;6271353;28;21399;-80
2023/04/14 03:29:55;;;;;;;7.45;3.85;;;3.10;99.90;;;;;;6267815;28;20053;-80
2023/04/14 03:33:01;;;;;;;12.45;3.50;;;3.20;99.90;;;;;;6265379;28;20045;-78
2023/04/14 03:36:07;;;;;;;6.13;3.20;;;3.20;99.90;;;;;;6262100;28;20057;-79
2023/04/14 03:39:13;;;;;;;6.95;4.43;;;3.20;99.90;;;;;;6260756;28;20049;-80
2023/04/14 03:42:15;;;;;;;7.25;4.07;;;3.20;99.90;;;;;;6264843;28;20557;-79
2023/04/14 03:45:17;;;;;;;5.68;4.13;;;3.20;99.90;;;;;;6263144;28;20049;-80
2023/04/14 03:48:25;;;;;;;8.30;4.47;;;3.30;99.90;;;;;;6263224;28;20055;-80
2023/04/14 03:51:31;;;;;;;9.32;4.05;;;3.30;99.90;;;;;;6267303;28;20076;-80
2023/04/14 03:54:34;;;;;;;8.95;4.20;;;3.30;99.90;;;;;;6264788;28;20116;-78
2023/04/14 03:57:39;;;;;;;8.75;3.75;;;3.30;99.90;;;;;;6263972;28;20057;-79
2023/04/14 04:00:41;;;;;;;9.07;5.07;;;3.40;99.90;;;;;;6262022;28;20377;-79
2023/04/14 04:03:44;;;;;;;14.88;6.60;;;3.40;99.90;;;;;;6260902;28;20041;-79
2023/04/14 04:06:48;;;;;;;10.98;4.30;;;3.50;99.90;;;;;;6263183;28;20100;-80
2023/04/14 04:09:51;;;;;;;13.45;4.78;;;3.50;99.90;;;;;;6265041;28;20107;-79
2023/04/14 04:12:55;;;;;;;5.13;3.38;;;3.60;99.90;;;;;;6259608;28;20057;-79
2023/04/14 04:15:58;;;;;;;15.30;4.50;;;3.70;99.90;;;;;;6264927;28;20064;-79
2023/04/14 04:19:04;;;;;;;14.93;4.82;;;3.70;99.90;;;;;;6260991;28;20491;-78
2023/04/14 04:22:10;;;;;;;9.27;3.17;;;3.80;99.90;;;;;;6259720;28;20182;-79
2023/04/14 04:25:13;;;;;;;20.15;5.55;;;3.80;99.90;;;;;;6267209;28;20056;-79
2023/04/14 04:28:15;;;;;;;4.35;3.05;;;3.80;99.90;;;;;;6266858;28;20136;-80
2023/04/14 04:31:18;;;;;;;23.80;5.30;;;3.90;99.90;;;;;;6268075;28;20044;-79
2023/04/14 04:34:22;;;;;;;8.98;3.80;;;3.90;99.90;;;;;;6256806;28;20052;-79
2023/04/14 04:37:27;;;;;;;13.40;3.65;;;3.90;99.90;;;;;;6264277;28;20044;-79
2023/04/14 04:40:36;;;;;;;6.95;3.72;;;4.00;99.90;;;;;;6261072;28;20040;-81
2023/04/14 04:43:40;;;;;;;11.98;4.55;;;3.90;99.90;;;;;;6260533;28;20045;-78
2023/04/14 04:46:50;;;;;;;6.80;2.67;;;3.90;99.90;;;;;;6262616;28;20134;-80
2023/04/14 04:49:52;;;;;;;11.13;6.35;;;3.80;99.90;;;;;;6256155;28;20059;-80
2023/04/14 04:52:55;;;;;;;4.95;4.45;;;3.80;99.90;;;;;;6260201;28;20045;-79
2023/04/14 04:55:56;;;;;;;8.20;3.40;;;3.80;99.90;;;;;;6257794;28;20053;-80
2023/04/14 04:58:58;;;;;;;13.88;4.65;;;3.70;99.90;;;;;;6263056;28;20041;-79
2023/04/14 05:02:00;;;;;;;8.98;3.50;;;3.80;99.90;;;;;;6262364;28;20045;-80
2023/04/14 05:05:02;;;;;;;16.75;3.72;;;3.80;99.90;;;;;;6260138;28;20124;-80
2023/04/14 05:08:07;;;;;;;10.95;3.63;;;3.80;99.90;;;;;;6260390;28;20045;-79
2023/04/14 05:11:08;;;;;;;7.53;2.95;;;3.80;99.90;;;;;;6260794;28;20049;-79
2023/04/14 05:14:10;;;;;;;7.88;4.03;;;3.90;99.90;;;;;;6261111;28;20420;-79
2023/04/14 05:17:12;;;;;;;15.55;3.95;;;4.00;99.90;;;;;;6261812;28;20059;-80
2023/04/14 05:20:13;;;;;;;8.43;3.35;;;4.00;99.90;;;;;;6256786;28;20046;-80
2023/04/14 05:23:17;;;;;;;7.00;3.35;;;4.10;99.90;;;;;;6259236;28;20056;-79
2023/04/14 05:26:18;;;;;;;11.43;4.10;;;4.20;99.90;;;;;;6262118;28;20059;-79
2023/04/14 05:29:20;;;;;;;7.75;3.60;;;4.30;99.90;;;;;;6288266;22;20053;-80
2023/04/14 05:32:22;;;;;;;6.93;3.35;;;4.40;99.90;;;;;;6257324;28;20057;-81
2023/04/14 05:35:24;;;;;;;9.65;4.07;;;4.60;99.90;;;;;;6260636;28;20044;-83
2023/04/14 05:38:27;;;;;;;9.88;4.90;;;4.70;99.90;;;;;;6269165;28;20410;-80
2023/04/14 05:41:29;;;;;;;8.52;3.63;;;4.90;99.90;;;;;;6278646;28;20063;-80
2023/04/14 05:44:30;;;;;;;3.70;2.78;;;5.10;99.90;;;;;;6273222;28;20052;-79
2023/04/14 05:47:32;;;;;;;14.10;4.90;;;5.30;99.90;;;;;;6270428;28;20044;-82
2023/04/14 05:50:36;;;;;;;15.35;4.00;;;5.50;99.90;;;;;;6266605;28;20045;-82
2023/04/14 05:53:39;;;;;;;7.13;3.58;;;5.70;99.90;;;;;;6265696;28;20059;-81
2023/04/14 05:56:40;;;;;;;10.30;2.72;;;5.90;99.90;;;;;;6266498;28;20049;-83
2023/04/14 05:59:42;;;;;;;5.97;3.40;;;6.10;99.90;;;;;;6266997;28;20052;-82
2023/04/14 06:02:44;;;;;;;13.93;3.72;;;6.30;99.90;;;;;;6266966;28;20120;-80
2023/04/14 06:05:47;;;;;;;9.07;4.80;;;6.60;99.90;;;;;;6268809;28;20490;-81
2023/04/14 06:08:50;;;;;;;7.70;3.13;;;6.90;99.90;;;;;;6265258;28;20051;-81
2023/04/14 06:11:52;;;;;;;5.88;3.28;;;7.20;99.90;;;;;;6267479;28;20056;-84
2023/04/14 06:14:54;;;;;;;7.25;3.03;;;7.50;99.90;;;;;;6267291;28;20037;-82
2023/04/14 06:17:55;;;;;;;6.95;2.90;;;7.90;99.90;;;;;;6270469;28;20060;-82
2023/04/14 06:20:57;;;;;;;9.45;3.53;;;8.30;99.90;;;;;;6268267;28;20514;-82
2023/04/14 06:24:00;;;;;;;8.60;3.08;;;8.50;99.90;;;;;;6262867;28;20049;-80
2023/04/14 06:27:03;;;;;;;9.57;3.80;;;8.70;99.90;;;;;;6266654;28;20049;-83
2023/04/14 06:30:06;;;;;;;6.05;3.47;;;9.00;99.90;;;;;;6269174;28;20102;-82
2023/04/14 06:33:08;;;;;;;6.85;3.80;;;9.30;99.90;;;;;;6272887;28;20060;-80
2023/04/14 06:36:10;;;;;;;8.60;4.22;;;9.70;99.90;;;;;;6272193;28;20049;-83
2023/04/14 06:39:14;;;;;;;11.60;3.92;;;10.00;99.90;;;;;;6276325;28;20052;-82
2023/04/14 06:42:16;;;;;;;10.55;4.32;;;10.50;99.90;;;;;;6272857;28;20041;-81
2023/04/14 06:45:17;;;;;;;10.55;3.67;;;10.80;99.90;;;;;;6272336;28;20097;-82
2023/04/14 06:48:19;;;;;;;10.02;3.70;;;11.40;99.90;;;;;;6270223;28;20491;-80
2023/04/14 06:51:21;;;;;;;6.97;4.85;;;11.90;99.90;;;;;;6271859;28;20140;-82
2023/04/14 06:54:24;;;;;;;7.75;3.20;;;12.40;99.90;;;;;;6272969;28;20048;-84
2023/04/14 06:57:26;;;;;;;7.22;3.97;;;13.20;99.90;;;;;;6274582;28;20053;-84
2023/04/14 07:00:28;;;;;;;12.43;3.88;;;13.60;99.90;;;;;;6273978;28;20041;-84
2023/04/14 07:03:30;;;;;;;11.63;6.35;;;14.00;99.90;;;;;;6273667;28;20064;-84
2023/04/14 07:06:32;;;;;;;9.55;3.72;;;14.60;99.90;;;;;;6272849;28;20068;-83
2023/04/14 07:09:35;;;;;;;6.68;3.60;;;15.30;99.90;;;;;;6276102;28;20530;-84
2023/04/14 07:12:37;;;;;;;10.13;4.60;;;15.50;99.90;;;;;;6274134;28;20053;-84
2023/04/14 07:15:38;;;;;;;10.95;4.70;;;15.60;99.70;;;;;;6272683;28;20048;-83
2023/04/14 07:18:40;;;;;;;8.70;3.33;;;15.60;98.90;;;;;;6230847;28;20042;-84
2023/04/14 07:22:01;;;;;;;7.97;3.88;;;15.50;97.90;;;;;;6268284;28;20059;-86
2023/04/14 07:25:05;;;;;;;7.72;3.20;;;15.60;97.30;;;;;;6278789;28;20046;-84
2023/04/14 07:28:07;;;;;;;8.77;4.90;;;15.70;96.60;;;;;;6273089;28;20045;-87
2023/04/14 07:31:10;;;;;;;7.75;3.47;;;15.90;96.10;;;;;;6273559;28;20048;-87
2023/04/14 07:34:12;;;;;;;4.78;3.20;;;16.30;95.60;;;;;;6271016;28;20049;-84
2023/04/14 07:37:14;;;;;;;9.82;4.20;;;16.50;94.30;;;;;;6274973;28;20067;-86
2023/04/14 07:40:18;;;;;;;6.10;3.55;;;16.90;94.00;;;;;;6280634;28;20510;-85
2023/04/14 07:43:19;;;;;;;7.07;3.75;;;17.20;93.10;;;;;;6279525;28;20482;-84
2023/04/14 07:46:21;;;;;;;8.10;3.35;;;16.90;92.70;;;;;;6280391;28;20059;-83
2023/04/14 07:49:23;;;;;;;6.90;2.85;;;16.70;92.40;;;;;;6283539;28;20055;-86
2023/04/14 07:52:25;;;;;;;5.25;3.17;;;16.40;92.50;;;;;;6280000;28;20056;-85
2023/04/14 07:55:28;;;;;;;5.88;3.05;;;16.50;92.80;;;;;;6280913;28;20055;-83
2023/04/14 07:58:30;;;;;;;11.25;3.33;;;16.70;92.40;;;;;;6279118;28;20049;-83
2023/04/14 08:01:31;;;;;;;6.03;2.95;;;16.80;91.90;;;;;;6278770;28;20040;-84
2023/04/14 08:04:33;;;;;;;6.70;3.55;;;16.60;91.40;;;;;;6282073;28;20037;-83
2023/04/14 08:07:35;;;;;;;9.40;4.80;;;16.30;91.80;;;;;;6271340;28;20503;-81
2023/04/14 08:10:41;;;;;;;10.10;3.95;;;16.40;92.00;;;;;;6269364;28;20065;-84
2023/04/14 08:13:43;;;;;;;9.48;3.65;;;16.70;91.70;;;;;;6275920;28;20049;-83
2023/04/14 08:16:45;;;;;;;10.68;3.30;;;17.00;91.20;;;;;;6275364;28;20048;-83
2023/04/14 08:19:47;;;;;;;6.38;3.42;;;17.00;90.90;;;;;;6271903;28;20048;-84
2023/04/14 08:22:48;;;;;;;10.57;2.72;;;17.40;91.20;;;;;;6268993;28;20053;-85
2023/04/14 08:25:52;;;;;;;6.93;2.80;;;18.00;90.10;;;;;;6271279;28;20075;-86
2023/04/14 08:29:02;;;;;;;10.18;4.03;;;18.40;87.70;;;;;;6276281;28;20041;-87
2023/04/14 08:32:04;;;;;;;8.23;3.30;;;18.60;85.80;;;;;;6264310;28;20479;-87
2023/04/14 08:35:06;;;;;;;6.47;2.25;;;19.20;84.70;;;;;;6274644;28;20076;-86
2023/04/14 08:38:08;;;;;;;6.63;1.85;;;19.70;82.40;;;;;;6270285;28;20075;-84
2023/04/14 08:41:13;;;;;;;5.30;2.25;;;19.70;79.10;;;;;;6276339;28;20053;-85
2023/04/14 08:44:15;;;;;;;7.65;2.70;;;19.70;76.90;;;;;;6273572;28;20049;-86
2023/04/14 08:47:18;;;;;;;10.73;2.47;;;19.80;76.50;;;;;;6269764;28;21199;-85
2023/04/14 08:50:25;;;;;;;10.77;3.35;;;19.70;76.00;;;;;;6268907;28;20059;-85
2023/04/14 08:53:29;;;;;;;11.30;2.58;;;19.90;73.60;;;;;;6271526;28;20411;-86
2023/04/14 08:56:34;;;;;;;8.43;2.63;;;19.90;72.20;;;;;;6272649;28;20061;-85
2023/04/14 08:59:37;;;;;;;9.68;2.35;;;19.70;71.90;;;;;;6275534;28;20052;-85
2023/04/14 09:02:39;;;;;;;5.45;1.95;;;19.60;71.40;;;;;;6272517;28;20049;-86
2023/04/14 09:05:42;;;;;;;6.15;2.70;;;19.50;71.00;;;;;;6273985;28;20079;-84
2023/04/14 09:08:44;;;;;;;4.90;2.22;;;19.50;71.10;;;;;;6274653;28;20051;-84
2023/04/14 09:11:48;;;;;;;7.20;2.22;;;19.70;70.40;;;;;;6276474;28;20048;-82
2023/04/14 09:14:52;;;;;;;6.63;2.28;;;19.70;69.10;;;;;;6273935;28;20413;-86
2023/04/14 09:17:54;;;;;;;5.45;1.90;;;19.60;68.30;;;;;;6270859;28;20083;-85
2023/04/14 09:20:57;;;;;;;8.68;2.67;;;19.90;68.30;;;;;;6273386;28;20045;-85
2023/04/14 09:23:59;;;;;;;5.25;2.80;;;20.20;67.10;;;;;;6272265;28;20356;-85
2023/04/14 09:27:04;;;;;;;7.60;2.53;;;20.20;67.30;;;;;;6269017;28;20047;-86
2023/04/14 09:30:07;;;;;;;5.10;1.67;;;20.50;66.70;;;;;;6268751;28;20057;-86
2023/04/14 09:33:19;;;;;;;2.95;1.73;;;20.80;65.60;;;;;;6265762;28;20094;-85
2023/04/14 09:36:22;;;;;;;5.35;1.77;;;20.60;64.10;;;;;;6270072;28;20397;-85
2023/04/14 09:39:23;;;;;;;4.55;1.75;;;20.50;64.50;;;;;;6266537;28;20044;-86
2023/04/14 09:42:38;;;;;;;4.47;2.28;;;20.90;63.90;;;;;;6266858;28;20056;-86
2023/04/14 09:45:42;;;;;;;4.70;2.05;;;21.30;62.20;;;;;;6269575;28;20726;-85
2023/04/14 09:48:52;;;;;;;6.65;2.08;;;20.70;61.60;;;;;;6269163;28;20041;-86
2023/04/14 09:51:55;;;;;;;5.40;1.75;;;20.20;62.70;;;;;;6272082;28;20569;-86
2023/04/14 09:54:57;;;;;;;5.13;2.20;;;20.20;63.40;;;;;;6267513;28;20128;-86
2023/04/14 09:58:01;;;;;;;4.65;2.70;;;20.10;62.70;;;;;;6269485;28;20183;-86
2023/04/14 10:01:03;;;;;;;13.93;2.50;;;20.00;63.90;;;;;;6267741;28;20388;-85
2023/04/14 10:04:05;;;;;;;5.68;1.88;;;20.30;63.80;;;;;;6269984;28;20511;-85
2023/04/14 10:07:07;;;;;;;9.63;2.80;;;20.10;62.10;;;;;;6266322;28;20037;-86
2023/04/14 10:10:12;;;;;;;5.85;2.33;;;20.10;61.90;;;;;;6272338;28;20151;-84
2023/04/14 10:13:17;;;;;;;5.82;2.10;;;20.20;61.10;;;;;;6278505;28;20058;-86
2023/04/14 10:16:19;;;;;;;4.50;1.98;;;20.20;60.40;;;;;;6278250;28;20127;-84
2023/04/14 10:19:21;;;;;;;5.72;1.58;;;20.30;60.20;;;;;;6275057;28;20056;-85
2023/04/14 10:22:23;;;;;;;3.05;1.55;;;20.30;60.00;;;;;;6273202;28;20049;-85
2023/04/14 10:25:26;;;;;;;7.00;1.98;;;20.40;59.40;;;;;;6271087;28;20040;-86
2023/04/14 10:28:30;;;;;;;5.78;2.00;;;20.50;58.70;;;;;;6276129;28;20062;-86
2023/04/14 10:31:36;;;;;;;2.90;2.10;;;20.50;58.70;;;;;;6275531;28;20431;-85
2023/04/14 10:34:39;;;;;;;5.95;2.75;;;20.60;58.40;;;;;;6264695;28;20492;-85
2023/04/14 10:37:50;;;;;;;5.20;1.75;;;20.90;58.20;;;;;;6272673;28;20067;-86
2023/04/14 10:40:52;;;;;;;4.03;1.85;;;20.90;57.40;;;;;;6283331;28;20040;-85
2023/04/14 10:43:55;;;;;;;22.63;10.60;;;20.60;57.20;;;;;;6281121;28;20049;-86
2023/04/14 10:47:00;;;;;;;5.07;1.83;;;20.40;57.20;;;;;;6271643;28;20045;-85
2023/04/14 10:50:13;;;;;;;5.70;2.45;;;20.10;57.30;;;;;;6270541;28;20056;-87
2023/04/14 10:53:14;;;;;;;7.85;2.13;;;19.80;57.00;;;;;;6270018;28;20049;-86
2023/04/14 10:56:20;;;;;;;5.85;2.50;;;19.70;58.00;;;;;;6272944;28;20426;-83
2023/04/14 10:59:23;;;;;;;5.10;2.08;;;20.00;58.40;;;;;;6273351;28;20407;-85
2023/04/14 11:02:26;;;;;;;8.45;3.55;;;20.10;57.70;;;;;;6271875;28;20059;-84
2023/04/14 11:05:28;;;;;;;11.60;5.50;;;20.10;57.70;;;;;;6271657;28;20075;-83
2023/04/14 11:08:35;;;;;;;6.32;2.10;;;20.40;58.00;;;;;;6275611;28;20059;-83
2023/04/14 11:11:37;;;;;;;4.50;2.20;;;20.80;57.30;;;;;;6274059;28;20051;-83
2023/04/14 11:14:42;;;;;;;6.88;2.58;;;21.30;57.00;;;;;;6272990;28;20416;-84
2023/04/14 11:17:44;;;;;;;10.68;2.72;;;21.70;54.70;;;;;;6280142;28;20068;-84
2023/04/14 11:20:46;;;;;;;4.70;1.88;;;21.70;53.50;;;;;;6280204;28;20044;-83
2023/04/14 11:23:48;;;;;;;4.00;1.80;;;21.80;53.30;;;;;;6279792;28;20071;-84
2023/04/14 11:26:53;;;;;;;5.82;2.55;;;21.50;52.90;;;;;;6280726;28;20507;-84
2023/04/14 11:29:56;;;;;;;9.68;3.33;;;21.00;53.10;;;;;;6280200;28;20364;-83
2023/04/14 11:32:58;;;;;;;6.53;3.65;;;20.80;54.00;;;;;;6289235;28;20063;-82
2023/04/14 11:36:02;;;;;;;6.35;3.20;;;20.60;54.10;;;;;;6288216;28;20996;-84
2023/04/14 11:39:04;;;;;;;7.35;1.98;;;20.40;54.50;;;;;;6285494;28;20037;-83
2023/04/14 11:42:05;;;;;;;8.57;2.63;;;20.50;55.20;;;;;;6290258;28;20138;-85
2023/04/14 11:45:10;;;;;;;4.10;2.25;;;20.50;55.10;;;;;;6287148;28;20136;-82
2023/04/14 11:48:13;;;;;;;5.60;3.45;;;20.40;54.40;;;;;;6283977;28;20052;-83
2023/04/14 11:51:14;;;;;;;5.65;3.22;;;19.80;53.50;;;;;;6283573;28;20041;-83
2023/04/14 11:54:17;;;;;;;5.10;2.03;;;19.70;54.30;;;;;;6281564;28;20054;-83
2023/04/14 11:57:19;;;;;;;9.10;3.25;;;19.90;54.70;;;;;;6283604;28;20759;-82
2023/04/14 12:00:23;;;;;;;4.50;1.95;;;20.50;54.20;;;;;;6282613;28;20171;-84
2023/04/14 12:03:27;;;;;;;5.55;1.60;;;20.90;52.30;;;;;;6279968;28;20049;-83
2023/04/14 12:06:35;;;;;;;4.78;1.75;;;20.90;51.60;;;;;;6294070;28;20052;-81
2023/04/14 12:09:41;;;;;;;2.75;1.52;;;20.90;51.20;;;;;;6298056;28;20104;-82
2023/04/14 12:12:43;;;;;;;4.38;1.75;;;21.00;51.00;;;;;;6292621;28;20052;-84
2023/04/14 12:15:46;;;;;;;4.13;1.25;;;21.30;50.10;;;;;;6283405;28;20045;-83
2023/04/14 12:18:48;;;;;;;2.35;1.30;;;21.60;49.70;;;;;;6288453;28;20052;-83
2023/04/14 12:21:53;;;;;;;2.55;1.42;;;21.90;49.60;;;;;;6291155;28;20105;-84
2023/04/14 12:24:56;;;;;;;10.25;2.40;;;22.20;49.00;;;;;;6286807;28;20044;-84
2023/04/14 12:27:57;;;;;;;4.10;1.42;;;22.30;48.60;;;;;;6285235;28;20504;-84
2023/04/14 12:31:03;;;;;;;4.25;1.50;;;22.50;48.00;;;;;;6285068;28;20047;-84
2023/04/14 12:34:05;;;;;;;6.30;1.45;;;22.50;48.40;;;;;;6281945;28;20056;-83
2023/04/14 12:37:09;;;;;;;4.47;1.88;;;22.70;47.90;;;;;;6281706;28;20122;-84
2023/04/14 12:40:11;;;;;;;4.45;1.85;;;23.00;47.70;;;;;;6282661;28;20057;-83
2023/04/14 12:43:13;;;;;;;3.13;1.52;;;23.20;47.40;;;;;;6276110;28;20643;-83
2023/04/14 12:46:25;;;;;;;3.08;1.67;;;23.50;46.70;;;;;;6280619;28;20496;-85
2023/04/14 12:49:36;;;;;;;4.07;1.58;;;23.60;45.20;;;;;;6280763;28;20171;-82
2023/04/14 12:52:40;;;;;;;2.95;1.30;;;23.80;44.00;;;;;;6287301;28;20048;-82
2023/04/14 12:55:41;;;;;;;2.05;1.15;;;24.00;43.90;;;;;;6284987;28;20049;-82
2023/04/14 12:58:45;;;;;;;4.20;1.63;;;23.90;43.20;;;;;;6286588;28;20064;-83
2023/04/14 13:01:50;;;;;;;1.60;1.00;;;23.90;43.00;;;;;;6285153;28;20079;-85
2023/04/14 13:04:52;;;;;;;3.17;2.28;;;23.90;42.50;;;;;;6272455;28;20048;-85
2023/04/14 13:07:55;;;;;;;2.80;1.60;;;23.90;42.40;;;;;;6287618;28;20043;-84
2023/04/14 13:10:56;;;;;;;5.13;1.60;;;23.80;41.50;;;;;;6287153;28;20047;-83
2023/04/14 13:13:58;;;;;;;4.88;2.22;;;23.50;41.50;;;;;;6292643;28;20132;-86
2023/04/14 13:17:03;;;;;;;4.57;1.48;;;23.40;41.50;;;;;;6281680;28;20063;-85
2023/04/14 13:20:05;;;;;;;5.05;2.25;;;23.50;41.60;;;;;;6279567;28;20068;-85
2023/04/14 13:23:07;;;;;;;4.28;1.23;;;23.70;41.50;;;;;;6279456;28;20075;-87
2023/04/14 13:26:10;;;;;;;4.13;2.10;;;23.80;41.40;;;;;;6277437;28;20052;-82
2023/04/14 13:29:12;;;;;;;3.70;1.35;;;23.70;41.30;;;;;;6277770;28;20150;-82
2023/04/14 13:32:16;;;;;;;3.45;1.45;;;23.60;41.20;;;;;;6278420;28;20052;-86
2023/04/14 13:35:19;;;;;;;2.88;1.92;;;23.30;41.20;;;;;;6270853;28;20060;-85
2023/04/14 13:38:26;;;;;;;5.65;1.60;;;22.90;41.40;;;;;;6283840;28;20132;-84
2023/04/14 13:41:39;;;;;;;4.22;2.58;;;22.70;41.60;;;;;;6290425;28;20782;-86
2023/04/14 13:44:45;;;;;;;4.68;1.70;;;22.80;42.50;;;;;;6284518;28;20037;-84
2023/04/14 13:47:48;;;;;;;4.35;1.65;;;23.00;42.20;;;;;;6277122;28;20052;-83
2023/04/14 13:50:58;;;;;;;4.35;1.50;;;23.10;42.50;;;;;;6274941;28;20048;-85
2023/04/14 13:53:59;;;;;;;3.65;1.10;;;23.10;42.50;;;;;;6273748;28;20048;-83
2023/04/14 13:57:01;;;;;;;2.85;1.23;;;22.80;42.30;;;;;;6273716;28;20491;-82
2023/04/14 14:00:07;;;;;;;4.30;1.77;;;22.00;42.20;;;;;;6273575;28;20408;-84
2023/04/14 14:03:10;;;;;;;2.45;1.23;;;22.00;42.50;;;;;;6276477;28;20059;-83
2023/04/14 14:06:13;;;;;;;3.65;1.13;;;22.50;42.90;;;;;;6277463;28;20055;-83
2023/04/14 14:09:14;;;;;;;4.70;1.40;;;22.80;42.70;;;;;;6275453;28;21137;-83
2023/04/14 14:12:17;;;;;;;4.63;1.55;;;23.10;42.30;;;;;;6276724;28;20043;-82
2023/04/14 14:15:19;;;;;;;4.70;1.77;;;23.30;42.00;;;;;;6277229;28;20045;-85
2023/04/14 14:18:22;;;;;;;4.72;1.88;;;23.30;41.90;;;;;;6276362;28;20107;-84
2023/04/14 14:21:25;;;;;;;4.50;0.95;;;23.40;41.70;;;;;;6278316;28;20060;-85
2023/04/14 14:24:27;;;;;;;5.75;2.20;;;23.20;40.50;;;;;;6279005;28;20119;-84
2023/04/14 14:27:29;;;;;;;3.60;1.20;;;23.00;41.00;;;;;;6288240;28;20051;-84
2023/04/14 14:30:31;;;;;;;2.58;0.98;;;22.90;41.00;;;;;;6279621;28;20048;-85
2023/04/14 14:33:34;;;;;;;4.63;1.33;;;22.90;40.60;;;;;;6278540;28;20380;-85
2023/04/14 14:36:35;;;;;;;3.63;1.13;;;22.90;41.30;;;;;;6278915;28;20463;-86
2023/04/14 14:39:37;;;;;;;4.60;1.10;;;23.10;41.20;;;;;;6276981;28;20067;-82
2023/04/14 14:42:39;;;;;;;4.18;0.90;;;23.10;41.00;;;;;;6278564;28;20351;-86
2023/04/14 14:45:40;;;;;;;4.68;1.13;;;23.20;40.30;;;;;;6283000;28;20068;-86
2023/04/14 14:48:44;;;;;;;3.42;0.98;;;23.20;40.30;;;;;;6276716;28;21433;-83
2023/04/14 14:51:46;;;;;;;2.10;1.27;;;23.30;40.00;;;;;;6282951;28;20037;-84
2023/04/14 14:54:55;;;;;;;2.50;0.90;;;23.30;39.60;;;;;;6278626;28;20111;-83
2023/04/14 14:57:56;;;;;;;2.85;2.28;;;23.30;39.10;;;;;;6284489;28;20479;-83
2023/04/14 15:00:58;;;;;;;3.00;1.40;;;23.20;39.00;;;;;;6286995;28;20098;-83
2023/04/14 15:04:06;;;;;;;1.95;0.77;;;23.10;38.90;;;;;;6284626;28;20136;-85
2023/04/14 15:07:08;;;;;;;1.85;0.80;;;23.30;38.30;;;;;;6279953;28;20306;-84
2023/04/14 15:11:14;;;;;;;1.88;0.90;;;23.30;38.30;;;;;;6273690;28;20056;-87
2023/04/14 15:14:16;;;;;;;4.18;1.45;;;23.20;37.30;;;;;;6277665;28;20056;-84
2023/04/14 15:17:20;;;;;;;2.13;0.80;;;22.70;37.80;;;;;;6288221;28;20136;-85
2023/04/14 15:20:23;;;;;;;3.60;1.50;;;22.60;37.20;;;;;;6281747;28;20419;-85
2023/04/14 15:23:25;;;;;;;4.43;3.60;;;22.60;37.50;;;;;;6282441;28;20123;-84
2023/04/14 15:26:27;;;;;;;1.95;1.70;;;22.60;37.70;;;;;;6278189;28;20052;-85
2023/04/14 15:29:29;;;;;;;3.35;1.25;;;22.50;37.70;;;;;;6285026;28;20044;-85
2023/04/14 15:32:31;;;;;;;3.35;1.20;;;21.90;37.50;;;;;;6283767;28;20417;-85
2023/04/14 15:35:35;;;;;;;3.63;1.25;;;21.20;38.20;;;;;;6291091;28;20127;-85
2023/04/14 15:38:38;;;;;;;1.30;0.90;;;20.90;40.00;;;;;;6286685;28;20048;-84
2023/04/14 15:41:41;;;;;;;2.45;1.65;;;20.60;40.00;;;;;;6286774;28;20052;-84
2023/04/14 15:44:42;;;;;;;3.45;0.80;;;20.40;39.80;;;;;;6287240;28;20142;-84
2023/04/14 15:47:45;;;;;;;2.75;0.85;;;20.20;39.60;;;;;;6283278;28;20507;-83
2023/04/14 15:50:48;;;;;;;2.97;0.90;;;19.90;39.50;;;;;;6283370;28;20044;-84
2023/04/14 15:53:51;;;;;;;2.40;1.08;;;19.60;39.40;;;;;;6286097;28;20044;-85
2023/04/14 15:56:53;;;;;;;2.25;0.73;;;19.40;39.30;;;;;;6280766;28;20045;-83